Buoy 41503

sailwx.info

Track history (hours):
 
Tides and Currents Weather Stations Pressure Air Temp Water Temp Dewpoint Dewpoint Depression Visibility Wind Speed Wind Dir Waves Ship Positions

Drifting buoy 41503

Last reported at 2014-Sep-22 15:38 UTC. Time now 2014-Sep-22 18:19 UTC.
Position N 31°38' W 058°23'.

Water temperature 27.9 ° C

Date/timePositionNaut miles runAvg speedWind from/ knotsBaromVisibWave heightAir tempDewpointWater temp
2014-Sep-22 15:38N 31°38' W 058°23'1 2.8 27.9
2014-Sep-22 15:25N 31°38' W 058°23'0 0.0 27.9
2014-Sep-22 14:40N 31°38' W 058°23'0 3.0 27.8
2014-Sep-22 14:31N 31°38' W 058°24'0 0.0 27.8
2014-Sep-22 13:49N 31°38' W 058°24'1 0.6 27.7
2014-Sep-22 12:56N 31°37' W 058°24'0 5.4 27.7
2014-Sep-22 12:52N 31°37' W 058°23'0 0.0 27.7
2014-Sep-22 12:05N 31°37' W 058°23'115.2 27.7
2014-Sep-22 12:01N 31°36' W 058°24'0 0.0 27.7
2014-Sep-22 11:58N 31°36' W 058°24'0 0.0 27.7
2014-Sep-22 11:13N 31°36' W 058°24'1 0.8 27.7
2014-Sep-22 10:08N 31°36' W 058°23'0 0.8 27.7
2014-Sep-22 09:49N 31°36' W 058°23'0 0.0 27.7
2014-Sep-22 09:46N 31°36' W 058°23'213.1 27.7
2014-Sep-22 09:39N 31°36' W 058°21'0 0.0 27.7
2014-Sep-22 08:20N 31°36' W 058°21'0 0.0 27.7
2014-Sep-22 08:04N 31°36' W 058°21'0 0.0 27.7
2014-Sep-22 08:00N 31°36' W 058°21'1 5.5 27.7
2014-Sep-22 07:53N 31°36' W 058°20'0 1.7 27.7
2014-Sep-22 07:38N 31°36' W 058°20'0 0.6 27.7
2014-Sep-22 07:33N 31°36' W 058°20'116.7 27.7
2014-Sep-22 07:29N 31°37' W 058°20'0 0.0 27.7
2014-Sep-22 05:54N 31°37' W 058°20'220.7 27.7
2014-Sep-22 05:48N 31°39' W 058°19'0 0.0 27.7
2014-Sep-22 04:12N 31°39' W 058°19'0 0.0 27.7
2014-Sep-22 04:09N 31°39' W 058°19'0 0.0 27.7
2014-Sep-22 03:03N 31°39' W 058°19'0 9.8 27.8
2014-Sep-22 03:00N 31°39' W 058°18'0 0.0 27.8
2014-Sep-22 02:16N 31°39' W 058°18'1 0.8 27.8
2014-Sep-22 01:25N 31°40' W 058°18'1 7.2 27.8
2014-Sep-22 01:19N 31°41' W 058°18'0 0.6 27.8
2014-Sep-22 00:38N 31°41' W 058°19'0 0.1 27.9
2014-Sep-21 23:58N 31°41' W 058°19'0 1.8 27.9
2014-Sep-21 23:46N 31°41' W 058°19'0 2.7 27.9
2014-Sep-21 23:39N 31°42' W 058°19'2 1.5 27.9
2014-Sep-21 22:22N 31°42' W 058°21'1 1.3 27.9
2014-Sep-21 21:50N 31°43' W 058°20'0 1.6 28.0
2014-Sep-21 21:38N 31°43' W 058°21'0 0.0 28.0
2014-Sep-21 21:24N 31°43' W 058°21'0 0.9 28.0
2014-Sep-21 21:20N 31°43' W 058°21'1 0.9 28.0
2014-Sep-21 20:08N 31°43' W 058°22'1 1.4 28.0
2014-Sep-21 19:43N 31°43' W 058°22'1 1.0 28.0
2014-Sep-21 19:11N 31°44' W 058°22'0 1.6 28.1
2014-Sep-21 19:08N 31°44' W 058°22'1 1.2 28.1
2014-Sep-21 18:01N 31°44' W 058°24'1 1.4 28.1
2014-Sep-21 17:32N 31°43' W 058°24'1 0.6 28.1
2014-Sep-21 15:50N 31°44' W 058°25'1 0.8 28.0
2014-Sep-21 14:54N 31°43' W 058°26'118.1 27.9
2014-Sep-21 14:52N 31°42' W 058°26'0 0.4 27.9
2014-Sep-21 14:09N 31°42' W 058°26'1 0.7 27.8
2014-Sep-21 13:22N 31°42' W 058°26'0 1.2 27.7
2014-Sep-21 13:14N 31°42' W 058°26'111.1 27.7
2014-Sep-21 13:10N 31°41' W 058°25'0 0.3 27.7
2014-Sep-21 12:24N 31°41' W 058°25'112.1 27.7
2014-Sep-21 12:19N 31°40' W 058°24'0 0.0 27.7
2014-Sep-21 11:39N 31°40' W 058°24'0 0.0 27.7
2014-Sep-21 10:32N 31°40' W 058°24'1 3.8 27.6
2014-Sep-21 10:24N 31°40' W 058°24'0 0.5
2014-Sep-21 10:05N 31°41' W 058°24'0 2.4 27.6
2014-Sep-21 10:01N 31°40' W 058°24'1 8.0 27.6
2014-Sep-21 09:54N 31°41' W 058°23'0 0.0 27.7
2014-Sep-21 09:51N 31°41' W 058°23'0 0.3 27.7
2014-Sep-21 08:55N 31°41' W 058°23'0 2.0 27.7
2014-Sep-21 08:47N 31°41' W 058°23'0 0.9 27.7
2014-Sep-21 08:19N 31°41' W 058°23'0 3.3 27.7
2014-Sep-21 08:16N 31°41' W 058°23'113.3 27.7
2014-Sep-21 08:12N 31°41' W 058°22'0 0.0 27.7
2014-Sep-21 07:48N 31°41' W 058°22'216.1 27.7
2014-Sep-21 07:42N 31°43' W 058°22'0 0.0 27.7
2014-Sep-21 07:39N 31°43' W 058°22'0 0.0 27.7
2014-Sep-21 06:10N 31°43' W 058°22'0 1.2 27.7
2014-Sep-21 06:07N 31°43' W 058°22'1 7.7 27.7
2014-Sep-21 06:03N 31°43' W 058°23'470.8 27.7
2014-Sep-21 06:00N 31°46' W 058°23'0 0.0 27.7
2014-Sep-21 04:25N 31°46' W 058°23'0 0.0 27.7
2014-Sep-21 04:20N 31°46' W 058°23'0 0.0 27.7
2014-Sep-21 02:38N 31°46' W 058°23'1 1.0 27.8
2014-Sep-21 01:48N 31°47' W 058°24'0 0.0 27.9
2014-Sep-21 01:45N 31°47' W 058°24'110.5 27.9
2014-Sep-21 01:38N 31°47' W 058°25'0 0.0 27.9
2014-Sep-21 01:00N 31°47' W 058°25'014.0 27.9
2014-Sep-21 00:58N 31°47' W 058°26'0 0.2 27.9
2014-Sep-21 00:27N 31°47' W 058°26'0 0.0 27.9
2014-Sep-21 00:07N 31°47' W 058°26'1 1.1 27.9
2014-Sep-20 23:14N 31°47' W 058°27'0 0.2 27.9
2014-Sep-20 22:54N 31°47' W 058°27'1 0.7 28.0
2014-Sep-20 22:08N 31°47' W 058°28'0 0.6 28.1
2014-Sep-20 21:34N 31°47' W 058°28'0 0.0 28.1
2014-Sep-20 21:32N 31°47' W 058°28'1 1.0 28.1
2014-Sep-20 20:35N 31°46' W 058°29'0 0.4 28.2
2014-Sep-20 19:54N 31°46' W 058°29'1 5.7 28.3
2014-Sep-20 19:47N 31°46' W 058°28'0 0.6 28.3
2014-Sep-20 19:20N 31°45' W 058°28'0 0.7 28.3
2014-Sep-20 18:52N 31°46' W 058°28'0 0.2 28.4
2014-Sep-20 18:13N 31°46' W 058°29'0 2.3 28.4
2014-Sep-20 18:09N 31°46' W 058°28'0 0.4 28.3
2014-Sep-20 17:39N 31°45' W 058°28'0 0.3 28.2
2014-Sep-20 16:02N 31°45' W 058°28'0 0.4 28.1
2014-Sep-20 15:19N 31°45' W 058°28'1 0.7 28.0
2014-Sep-20 14:29N 31°45' W 058°28'0 0.2 27.9
2014-Sep-20 13:38N 31°45' W 058°28'0 3.4 27.8
2014-Sep-20 13:31N 31°45' W 058°28'1 1.2 27.8
2014-Sep-20 12:39N 31°46' W 058°27'0 0.0 27.7
2014-Sep-20 10:55N 31°46' W 058°27'0 2.1 27.6
2014-Sep-20 10:48N 31°46' W 058°27'0 0.0 27.6
2014-Sep-20 10:36N 31°46' W 058°27'1 2.0 27.6
2014-Sep-20 10:09N 31°47' W 058°27'0 0.0 27.6
2014-Sep-20 09:16N 31°47' W 058°27'1 5.0 27.6
2014-Sep-20 09:08N 31°47' W 058°27'1 4.2 27.6
2014-Sep-20 08:58N 31°47' W 058°26'1 1.6 27.6
2014-Sep-20 08:24N 31°48' W 058°27'0 0.4 27.6
2014-Sep-20 07:58N 31°48' W 058°27'0 4.7 27.6
2014-Sep-20 07:54N 31°48' W 058°26'126.5 27.6
2014-Sep-20 07:51N 31°49' W 058°27'0 0.0 27.6
2014-Sep-20 07:33N 31°49' W 058°27'0 0.0 27.6
2014-Sep-20 06:49N 31°49' W 058°27'1 1.5 27.6
2014-Sep-20 06:22N 31°49' W 058°26'351.8 27.7
2014-Sep-20 06:19N 31°50' W 058°29'0 0.0 27.7
2014-Sep-20 06:11N 31°50' W 058°29'0 0.1 27.7
2014-Sep-20 04:36N 31°50' W 058°29'2 1.1 27.7
2014-Sep-20 02:52N 31°51' W 058°31'0 0.0 27.7
2014-Sep-20 02:07N 31°51' W 058°31'0 4.6 27.7
2014-Sep-20 02:01N 31°51' W 058°32'1 0.9 27.7
2014-Sep-20 01:19N 31°51' W 058°33'0 0.0 27.7
2014-Sep-20 00:25N 31°51' W 058°33'0 4.7 27.7
2014-Sep-20 00:24N 31°51' W 058°32'0 0.4 27.7
2014-Sep-19 23:37N 31°51' W 058°33'0 4.8 27.7
2014-Sep-19 23:33N 31°50' W 058°33'0 2.3 27.7
2014-Sep-19 23:24N 31°50' W 058°33'1 1.0 27.7
2014-Sep-19 22:36N 31°50' W 058°34'0 8.3 27.8
2014-Sep-19 22:33N 31°50' W 058°33'0 0.2 27.8
2014-Sep-19 21:00N 31°50' W 058°34'0 0.4 27.9
2014-Sep-19 20:07N 31°50' W 058°34'1 1.3 27.9
2014-Sep-19 19:29N 31°50' W 058°35'0 0.7 27.9
2014-Sep-19 19:18N 31°50' W 058°35'0 9.9 27.9
2014-Sep-19 19:16N 31°50' W 058°35'0 0.0 27.9
2014-Sep-19 18:22N 31°50' W 058°35'0 0.7 27.9
2014-Sep-19 17:54N 31°50' W 058°35'0 0.2 27.9
2014-Sep-19 16:09N 31°50' W 058°35'1 1.1 27.7
2014-Sep-19 14:50N 31°51' W 058°37'0 0.5 27.7
2014-Sep-19 14:02N 31°50' W 058°37'1 8.2 27.7
2014-Sep-19 13:53N 31°51' W 058°38'0 0.0 27.6
2014-Sep-19 12:18N 31°51' W 058°38'1 0.7 27.6
2014-Sep-19 11:20N 31°51' W 058°39'0 1.0 27.6
2014-Sep-19 11:07N 31°50' W 058°39'0 0.6 27.6
2014-Sep-19 10:23N 31°51' W 058°39'0 0.0 27.6
2014-Sep-19 10:19N 31°51' W 058°39'0 5.4 27.6
2014-Sep-19 10:15N 31°50' W 058°39'0 0.0 27.6
2014-Sep-19 09:38N 31°50' W 058°39'122.7 27.6
2014-Sep-19 09:35N 31°50' W 058°40'1 2.8 27.6
2014-Sep-19 09:24N 31°50' W 058°39'1 0.7 27.6
2014-Sep-19 08:39N 31°50' W 058°40'0 0.0 27.6
2014-Sep-19 08:34N 31°50' W 058°40'0 0.0 27.6
2014-Sep-19 08:09N 31°50' W 058°40'0 9.5 27.6
2014-Sep-19 08:06N 31°50' W 058°40'0 5.2 27.6
2014-Sep-19 08:03N 31°50' W 058°40'0 0.8 27.6
2014-Sep-19 07:46N 31°50' W 058°40'0 0.4 27.6
2014-Sep-19 06:59N 31°50' W 058°40'0 0.7 27.6
2014-Sep-19 06:24N 31°50' W 058°40'112.0 27.6
2014-Sep-19 06:20N 31°49' W 058°41'0 0.0 27.6
2014-Sep-19 04:48N 31°49' W 058°41'1 4.4 27.6
2014-Sep-19 04:39N 31°49' W 058°42'0 0.0 27.6
2014-Sep-19 02:24N 31°49' W 058°42'010.9 27.6
2014-Sep-19 02:22N 31°49' W 058°42'0 0.1 27.6
2014-Sep-19 01:39N 31°49' W 058°42'1 0.9 27.6
2014-Sep-19 00:48N 31°49' W 058°43'0 0.0 27.6
2014-Sep-19 00:45N 31°49' W 058°43'0 0.4 27.6
2014-Sep-18 23:53N 31°48' W 058°43'0 8.2
2014-Sep-18 23:51N 31°48' W 058°43'0 0.0 27.7
2014-Sep-18 23:06N 31°48' W 058°43'1 0.8 27.7
2014-Sep-18 22:17N 31°48' W 058°43'1 1.7 27.7
2014-Sep-18 21:54N 31°48' W 058°44'0 0.0 27.7
2014-Sep-18 21:24N 31°48' W 058°44'1 0.5 27.7
2014-Sep-18 20:18N 31°47' W 058°44'1 2.2 27.7
2014-Sep-18 19:43N 31°47' W 058°46'1 0.7 27.7
2014-Sep-18 18:37N 31°46' W 058°45'1 1.2 27.7
2014-Sep-18 18:06N 31°46' W 058°45'1 0.6 27.8
2014-Sep-18 16:24N 31°45' W 058°46'0 0.4 27.7
2014-Sep-18 15:09N 31°45' W 058°46'0 0.1 27.7
2014-Sep-18 14:23N 31°45' W 058°46'1 5.4 27.6
2014-Sep-18 14:13N 31°44' W 058°47'1 0.3 27.6
2014-Sep-18 12:33N 31°44' W 058°47'0 0.5 27.6
2014-Sep-18 11:39N 31°44' W 058°48'0 0.0 27.6
2014-Sep-18 10:34N 31°44' W 058°48'0 8.9 27.6
2014-Sep-18 10:31N 31°44' W 058°47'0 4.1 27.6
2014-Sep-18 10:27N 31°44' W 058°48'0 0.0 27.6
2014-Sep-18 10:07N 31°44' W 058°48'0 0.0 27.6
2014-Sep-18 10:00N 31°44' W 058°48'119.0 27.6
2014-Sep-18 09:58N 31°43' W 058°48'0 0.0 27.6
2014-Sep-18 08:53N 31°43' W 058°48'0 3.6 27.6
2014-Sep-18 08:46N 31°44' W 058°48'1 9.8 27.6
2014-Sep-18 08:42N 31°43' W 058°48'0 0.7
2014-Sep-18 08:19N 31°43' W 058°48'022.5 27.6
2014-Sep-18 08:18N 31°43' W 058°48'1 0.6 27.6
2014-Sep-18 07:11N 31°42' W 058°48'1 5.4 27.6
2014-Sep-18 07:05N 31°42' W 058°48'0 0.0 27.6
2014-Sep-18 06:39N 31°42' W 058°48'0 0.1 27.6
2014-Sep-18 04:58N 31°42' W 058°48'0 4.1 27.6
2014-Sep-18 04:51N 31°41' W 058°48'0 0.0 27.6
2014-Sep-18 02:48N 31°41' W 058°48'0 3.6 27.6
2014-Sep-18 02:42N 31°41' W 058°48'0 0.0 27.6
2014-Sep-18 01:58N 31°41' W 058°48'1 0.8 27.6
2014-Sep-18 01:10N 31°41' W 058°49'0 0.9 27.6
2014-Sep-18 01:00N 31°41' W 058°49'0 0.1 27.6
2014-Sep-18 00:22N 31°41' W 058°49'0 2.4 27.6
2014-Sep-18 00:20N 31°41' W 058°49'0 0.2 27.6
2014-Sep-17 23:24N 31°41' W 058°49'0 8.5 27.6
2014-Sep-17 23:21N 31°41' W 058°50'0 0.0 27.6
2014-Sep-17 22:48N 31°41' W 058°50'0 0.3 27.6
2014-Sep-17 22:06N 31°41' W 058°50'0 0.0 27.6
2014-Sep-17 21:47N 31°41' W 058°50'1 0.5 27.6
2014-Sep-17 20:29N 31°40' W 058°51'1 2.5 27.7
2014-Sep-17 20:08N 31°40' W 058°52'132.5 27.7
2014-Sep-17 20:07N 31°40' W 058°52'0 0.1 27.7
2014-Sep-17 18:47N 31°40' W 058°52'0 0.6 27.7
2014-Sep-17 18:16N 31°39' W 058°52'0 3.0 27.7
2014-Sep-17 18:08N 31°40' W 058°52'1 0.7 27.7
2014-Sep-17 16:34N 31°39' W 058°53'1 0.6 27.7
2014-Sep-17 15:29N 31°38' W 058°53'0 0.1 27.7
2014-Sep-17 14:44N 31°38' W 058°53'1 0.8 27.6
2014-Sep-17 13:50N 31°38' W 058°54'0 0.2 27.6
2014-Sep-17 13:03N 31°38' W 058°54'0 0.5 27.6
2014-Sep-17 12:08N 31°38' W 058°54'230.6 27.6
2014-Sep-17 12:05N 31°37' W 058°55'0 0.0 27.6
2014-Sep-17 12:02N 31°37' W 058°55'0 0.1 27.6
2014-Sep-17 10:43N 31°37' W 058°55'0 2.9 27.6
2014-Sep-17 10:39N 31°37' W 058°54'0 0.0 27.6
2014-Sep-17 10:31N 31°37' W 058°54'0 1.3 27.6
2014-Sep-17 10:24N 31°37' W 058°55'0 0.0 27.6
2014-Sep-17 09:08N 31°37' W 058°55'0 1.0 27.7
2014-Sep-17 09:05N 31°37' W 058°55'1 8.5 27.7
2014-Sep-17 09:01N 31°37' W 058°54'0 8.6 27.7
2014-Sep-17 08:58N 31°37' W 058°54'110.8 27.7
2014-Sep-17 08:55N 31°37' W 058°55'0 5.7 27.7
2014-Sep-17 08:51N 31°37' W 058°55'0 3.8 27.7
2014-Sep-17 08:45N 31°37' W 058°55'0 0.0 27.7
2014-Sep-17 08:28N 31°37' W 058°55'0 0.0 27.7
2014-Sep-17 07:23N 31°37' W 058°55'0 4.5 27.7
2014-Sep-17 07:19N 31°36' W 058°55'0 9.8 27.7
2014-Sep-17 07:16N 31°37' W 058°55'0 0.0 27.7
2014-Sep-17 06:53N 31°37' W 058°55'0 0.0
2014-Sep-17 06:52N 31°37' W 058°55'1 4.1 27.7
2014-Sep-17 06:43N 31°37' W 058°56'0 0.0 27.7
2014-Sep-17 05:08N 31°37' W 058°56'1 0.6 27.7
2014-Sep-17 03:07N 31°37' W 058°57'0 0.0 27.7
2014-Sep-17 02:20N 31°37' W 058°57'0 0.1 27.7
2014-Sep-17 01:25N 31°37' W 058°57'1 7.4 27.7
2014-Sep-17 01:20N 31°37' W 058°58'0 0.0 27.7
2014-Sep-17 00:42N 31°37' W 058°58'142.4 27.7
2014-Sep-17 00:41N 31°37' W 058°59'0 0.0 27.7
2014-Sep-16 23:50N 31°37' W 058°59'0 0.5 27.7
2014-Sep-16 23:44N 31°37' W 058°59'0 0.3 27.7
2014-Sep-16 23:17N 31°37' W 058°59'0 0.4 27.7
2014-Sep-16 22:12N 31°38' W 058°59'1 1.1 27.8
2014-Sep-16 21:36N 31°38' W 058°59'0 0.2 27.9
2014-Sep-16 20:38N 31°38' W 058°60'1 9.1 27.9
2014-Sep-16 20:33N 31°39' W 058°59'1 0.8 27.9
2014-Sep-16 18:59N 31°40' W 058°60'1 0.9 27.9
2014-Sep-16 18:24N 31°40' W 058°60'115.5 28.0
2014-Sep-16 18:21N 31°40' W 058°59'1 0.9 28.0
2014-Sep-16 16:46N 31°41' W 058°58'1 0.8 28.1
2014-Sep-16 15:04N 31°42' W 058°57'1 4.1 28.2
2014-Sep-16 14:55N 31°43' W 058°57'0 0.0 28.2
2014-Sep-16 14:13N 31°43' W 058°57'1 0.6 28.2
2014-Sep-16 13:22N 31°43' W 058°57'0 0.0 28.1
2014-Sep-16 13:21N 31°43' W 058°57'1 0.7 28.1
2014-Sep-16 12:28N 31°44' W 058°57'1 7.1 28.1
2014-Sep-16 12:22N 31°44' W 058°56'0 0.0 28.1
2014-Sep-16 11:02N 31°44' W 058°56'0 2.1 28.2
2014-Sep-16 10:56N 31°44' W 058°56'0 3.2 28.2
2014-Sep-16 10:53N 31°44' W 058°56'0 0.0 28.2
2014-Sep-16 10:49N 31°44' W 058°56'0 0.0 28.2
2014-Sep-16 10:46N 31°44' W 058°56'0 0.0 28.2
2014-Sep-16 09:22N 31°44' W 058°56'012.0 28.2
2014-Sep-16 09:20N 31°45' W 058°56'0 0.0 28.2
2014-Sep-16 09:17N 31°45' W 058°56'0 0.0 28.2
2014-Sep-16 09:14N 31°45' W 058°56'1 7.9 28.2
2014-Sep-16 09:08N 31°44' W 058°55'0 0.0 28.2
2014-Sep-16 09:07N 31°44' W 058°55'0 0.0 28.2
2014-Sep-16 07:40N 31°44' W 058°55'0 1.3 28.2
2014-Sep-16 07:33N 31°44' W 058°55'0 4.7 28.2
2014-Sep-16 07:31N 31°44' W 058°55'0 0.9 28.2
2014-Sep-16 07:04N 31°44' W 058°55'0 1.8 28.2
2014-Sep-16 06:54N 31°44' W 058°55'0 0.0 28.3
2014-Sep-16 05:20N 31°44' W 058°55'114.9 28.3
2014-Sep-16 05:15N 31°43' W 058°54'0 0.0 28.3
2014-Sep-16 02:40N 31°43' W 058°54'0 0.2 28.3
2014-Sep-16 01:49N 31°43' W 058°54'0 1.2 28.4
2014-Sep-16 01:43N 31°43' W 058°54'0 0.1 28.4
2014-Sep-16 01:02N 31°43' W 058°54'0 4.7 28.4
2014-Sep-16 01:01N 31°43' W 058°54'0 2.8 28.4
2014-Sep-16 00:55N 31°43' W 058°54'0 0.0 28.4
2014-Sep-16 00:10N 31°43' W 058°54'1 2.8 28.4
2014-Sep-15 23:49N 31°42' W 058°54'1 1.1 28.4
2014-Sep-15 23:20N 31°42' W 058°54'0 0.0 28.4
2014-Sep-15 22:32N 31°42' W 058°54'0 0.0 28.4
2014-Sep-15 22:09N 31°42' W 058°54'1 0.5 28.4
2014-Sep-15 20:57N 31°42' W 058°53'0 1.4 28.4
2014-Sep-15 20:52N 31°42' W 058°53'0 0.8 28.4
2014-Sep-15 20:44N 31°42' W 058°54'0 0.3 28.4
2014-Sep-15 19:11N 31°41' W 058°53'0 1.8 28.4
2014-Sep-15 19:04N 31°41' W 058°53'0 0.1 28.4
2014-Sep-15 18:38N 31°41' W 058°53'0 0.3 28.4
2014-Sep-15 16:58N 31°41' W 058°53'0 0.0 28.4
2014-Sep-15 16:56N 31°41' W 058°53'0 0.2 28.4
2014-Sep-15 15:23N 31°41' W 058°54'1 1.0 28.4
2014-Sep-15 14:33N 31°40' W 058°54'0 0.4 28.4
2014-Sep-15 13:44N 31°40' W 058°54'1 5.4 28.4
2014-Sep-15 13:35N 31°40' W 058°54'0 0.0 28.4
2014-Sep-15 12:47N 31°40' W 058°54'0 0.2 28.4
2014-Sep-15 11:18N 31°39' W 058°54'1 0.4 28.3
2014-Sep-15 09:54N 31°39' W 058°54'0 0.5 28.4
2014-Sep-15 09:37N 31°39' W 058°54'0 1.6 28.4
2014-Sep-15 09:34N 31°39' W 058°54'0 0.0 28.4
2014-Sep-15 09:24N 31°39' W 058°54'0 2.9 28.4
2014-Sep-15 09:19N 31°39' W 058°54'0 0.0 28.4
2014-Sep-15 07:57N 31°39' W 058°54'0 0.7 28.4
2014-Sep-15 07:42N 31°39' W 058°54'0 0.5 28.4
2014-Sep-15 07:15N 31°38' W 058°54'0 0.0 28.4
2014-Sep-15 07:13N 31°38' W 058°54'0 3.9 28.4
2014-Sep-15 07:07N 31°38' W 058°54'0 0.0 28.4
2014-Sep-15 05:31N 31°38' W 058°54'1 4.5 28.5
2014-Sep-15 05:24N 31°38' W 058°54'0 0.0 28.5
2014-Sep-15 02:11N 31°38' W 058°54'0 2.6 28.6
2014-Sep-15 02:04N 31°37' W 058°54'0 0.0 28.6
2014-Sep-15 01:24N 31°37' W 058°54'0 0.0 28.6
2014-Sep-15 01:23N 31°37' W 058°54'117.8 28.6
2014-Sep-15 01:21N 31°37' W 058°55'0 0.1 28.6
2014-Sep-15 00:32N 31°37' W 058°55'0 1.0 28.7
2014-Sep-15 00:17N 31°37' W 058°55'0 0.3 28.7
2014-Sep-14 23:36N 31°37' W 058°54'0 0.2 28.7
2014-Sep-14 21:20N 31°36' W 058°55'0 0.0 29.0
2014-Sep-14 21:03N 31°36' W 058°55'0 0.0 29.0
2014-Sep-14 20:53N 31°36' W 058°55'1 0.5 29.0
2014-Sep-14 19:38N 31°36' W 058°55'0 0.0 29.1
2014-Sep-14 19:23N 31°36' W 058°55'0 0.5 29.1
2014-Sep-14 18:49N 31°36' W 058°55'1 3.5 29.2
2014-Sep-14 18:37N 31°35' W 058°55'0 0.0 29.2
2014-Sep-14 17:08N 31°35' W 058°55'1 0.4 28.9
2014-Sep-14 15:23N 31°35' W 058°55'0 0.2 28.6
2014-Sep-14 14:54N 31°34' W 058°56'0 2.4 28.5
2014-Sep-14 14:51N 31°34' W 058°56'0 0.6 28.5
2014-Sep-14 14:07N 31°34' W 058°55'1 0.7 28.5
2014-Sep-14 13:14N 31°34' W 058°56'0 0.4 28.4
2014-Sep-14 12:19N 31°34' W 058°56'0 3.3 28.4
2014-Sep-14 12:16N 31°34' W 058°56'0 0.0 28.4
2014-Sep-14 11:38N 31°34' W 058°56'1 0.5 28.3
2014-Sep-14 10:23N 31°34' W 058°56'0 0.3 28.3
2014-Sep-14 10:06N 31°34' W 058°56'0 0.4 28.3
2014-Sep-14 09:59N 31°34' W 058°56'0 2.5 28.3
2014-Sep-14 09:55N 31°34' W 058°57'0 0.4 28.3
2014-Sep-14 09:38N 31°34' W 058°56'0 4.6 28.3
2014-Sep-14 09:36N 31°34' W 058°56'1 7.2 28.3
2014-Sep-14 09:31N 31°33' W 058°57'0 0.0 28.3
2014-Sep-14 08:45N 31°33' W 058°57'0 1.0 28.3
2014-Sep-14 08:21N 31°33' W 058°57'0 0.4 28.3
2014-Sep-14 07:51N 31°33' W 058°57'010.5
2014-Sep-14 07:49N 31°33' W 058°57'0 0.0 28.3
2014-Sep-14 07:23N 31°33' W 058°57'0 3.6 28.3
2014-Sep-14 07:16N 31°33' W 058°57'0 0.1 28.3
2014-Sep-14 05:38N 31°33' W 058°57'231.6 28.4
2014-Sep-14 05:35N 31°31' W 058°56'0 0.0 28.4
2014-Sep-14 02:31N 31°31' W 058°56'1 4.4 28.5
2014-Sep-14 02:24N 31°31' W 058°56'0 0.4 28.5
2014-Sep-14 01:44N 31°31' W 058°56'0 4.7 28.5
2014-Sep-14 01:43N 31°31' W 058°56'0 0.2 28.5
2014-Sep-14 00:52N 31°31' W 058°56'0 0.0 28.5
2014-Sep-14 00:49N 31°31' W 058°56'0 0.3 28.5
2014-Sep-14 00:02N 31°31' W 058°56'0 1.1 28.5
2014-Sep-13 23:55N 31°31' W 058°56'0 0.0 28.5
2014-Sep-13 23:13N 31°31' W 058°56'1 0.4 28.6
2014-Sep-13 21:46N 31°32' W 058°56'0 1.9 28.6
2014-Sep-13 21:38N 31°32' W 058°57'0 0.0 28.7
2014-Sep-13 21:34N 31°32' W 058°57'0 0.4 28.7
2014-Sep-13 21:14N 31°31' W 058°57'0 0.9 28.7
2014-Sep-13 21:10N 31°31' W 058°57'1 0.5 28.7
2014-Sep-13 20:07N 31°31' W 058°57'0 0.6 28.8
2014-Sep-13 19:35N 31°31' W 058°58'0 0.4 28.8
2014-Sep-13 18:58N 31°31' W 058°58'0 0.2 28.7
2014-Sep-13 17:50N 31°31' W 058°58'1 1.2 28.8
2014-Sep-13 17:20N 31°30' W 058°58'1 0.4 28.7
2014-Sep-13 15:37N 31°30' W 058°58'0 1.2 28.5
2014-Sep-13 15:14N 31°29' W 058°58'0 3.5 28.5
2014-Sep-13 15:08N 31°29' W 058°58'0 0.5 28.5
2014-Sep-13 14:23N 31°29' W 058°58'1 0.4 28.4
2014-Sep-13 12:38N 31°29' W 058°57'0 0.0 28.3
2014-Sep-13 11:50N 31°29' W 058°57'1 0.7 28.3
2014-Sep-13 10:56N 31°29' W 058°58'0 0.1 28.2
2014-Sep-13 10:31N 31°29' W 058°58'0 0.2 28.2
2014-Sep-13 09:51N 31°29' W 058°58'0 0.0 28.2
2014-Sep-13 09:48N 31°29' W 058°58'0 4.6 28.2
2014-Sep-13 09:42N 31°29' W 058°58'0 0.8 28.2
2014-Sep-13 09:17N 31°29' W 058°58'0 0.6 28.2
2014-Sep-13 08:43N 31°29' W 058°58'0 3.2 28.2
2014-Sep-13 08:40N 31°29' W 058°59'0 0.0 28.2
2014-Sep-13 08:06N 31°29' W 058°59'0 1.2 28.2
2014-Sep-13 08:02N 31°28' W 058°59'0 0.0 28.2
2014-Sep-13 07:38N 31°28' W 058°59'1 4.0 28.2
2014-Sep-13 07:28N 31°28' W 058°59'0 0.0 28.2
2014-Sep-13 05:53N 31°28' W 058°59'1 7.9 28.2
2014-Sep-13 05:47N 31°27' W 058°59'0 0.0 28.2
2014-Sep-13 04:11N 31°27' W 058°59'0 0.0 28.2
2014-Sep-13 02:51N 31°27' W 058°59'1 6.6 28.3
2014-Sep-13 02:46N 31°27' W 058°58'0 0.0 28.3
2014-Sep-13 02:02N 31°27' W 058°58'0 0.3 28.3
2014-Sep-13 01:11N 31°27' W 058°58'1 6.8 28.3
2014-Sep-13 01:05N 31°27' W 058°59'1 0.7 28.3
2014-Sep-13 00:23N 31°27' W 058°58'1 0.7 28.3
2014-Sep-12 23:32N 31°27' W 058°57'1 5.0 28.3
2014-Sep-12 23:23N 31°26' W 058°58'0 0.0 28.3
2014-Sep-12 22:11N 31°26' W 058°58'0 0.0 28.4
2014-Sep-12 22:05N 31°26' W 058°58'0 6.6 28.4
2014-Sep-12 22:02N 31°27' W 058°58'1 1.2 28.4
2014-Sep-12 21:23N 31°27' W 058°59'0 0.0 28.4
2014-Sep-12 20:32N 31°27' W 058°59'0 0.0 28.4
2014-Sep-12 19:45N 31°27' W 058°59'0 0.6 28.4
2014-Sep-12 19:10N 31°27' W 058°60'0 1.8 28.4
2014-Sep-12 19:04N 31°27' W 058°60'0 1.1 28.4
2014-Sep-12 18:48N 31°27' W 058°59'1 0.8 28.4
2014-Sep-12 18:02N 31°27' W 058°60'1 1.2 28.4
2014-Sep-12 17:30N 31°26' W 059°00'0 0.2 28.4
2014-Sep-12 15:48N 31°26' W 059°00'   28.3
Track history (hours):
 
Tides and Currents Weather Stations Pressure Air Temp Water Temp Dewpoint Dewpoint Depression Visibility Wind Speed Wind Dir Waves Ship Positions

Drifting buoy 41503

Last reported at 2014-Sep-22 15:38 UTC. Time now 2014-Sep-22 18:19 UTC.
Position N 31°38' W 058°23'.

Water temperature 27.9 ° C

Date/timePositionNaut miles runAvg speedWind from/ knotsBaromVisibWave heightAir tempDewpointWater temp
2014-Sep-22 15:38N 31°38' W 058°23'1 2.8 27.9
2014-Sep-22 15:25N 31°38' W 058°23'0 0.0 27.9
2014-Sep-22 14:40N 31°38' W 058°23'0 3.0 27.8
2014-Sep-22 14:31N 31°38' W 058°24'0 0.0 27.8
2014-Sep-22 13:49N 31°38' W 058°24'1 0.6 27.7
2014-Sep-22 12:56N 31°37' W 058°24'0 5.4 27.7
2014-Sep-22 12:52N 31°37' W 058°23'0 0.0 27.7
2014-Sep-22 12:05N 31°37' W 058°23'115.2 27.7
2014-Sep-22 12:01N 31°36' W 058°24'0 0.0 27.7
2014-Sep-22 11:58N 31°36' W 058°24'0 0.0 27.7
2014-Sep-22 11:13N 31°36' W 058°24'1 0.8 27.7
2014-Sep-22 10:08N 31°36' W 058°23'0 0.8 27.7
2014-Sep-22 09:49N 31°36' W 058°23'0 0.0 27.7
2014-Sep-22 09:46N 31°36' W 058°23'213.1 27.7
2014-Sep-22 09:39N 31°36' W 058°21'0 0.0 27.7
2014-Sep-22 08:20N 31°36' W 058°21'0 0.0 27.7
2014-Sep-22 08:04N 31°36' W 058°21'0 0.0 27.7
2014-Sep-22 08:00N 31°36' W 058°21'1 5.5 27.7
2014-Sep-22 07:53N 31°36' W 058°20'0 1.7 27.7
2014-Sep-22 07:38N 31°36' W 058°20'0 0.6 27.7
2014-Sep-22 07:33N 31°36' W 058°20'116.7 27.7
2014-Sep-22 07:29N 31°37' W 058°20'0 0.0 27.7
2014-Sep-22 05:54N 31°37' W 058°20'220.7 27.7
2014-Sep-22 05:48N 31°39' W 058°19'0 0.0 27.7
2014-Sep-22 04:12N 31°39' W 058°19'0 0.0 27.7
2014-Sep-22 04:09N 31°39' W 058°19'0 0.0 27.7
2014-Sep-22 03:03N 31°39' W 058°19'0 9.8 27.8
2014-Sep-22 03:00N 31°39' W 058°18'0 0.0 27.8
2014-Sep-22 02:16N 31°39' W 058°18'1 0.8 27.8
2014-Sep-22 01:25N 31°40' W 058°18'1 7.2 27.8
2014-Sep-22 01:19N 31°41' W 058°18'0 0.6 27.8
2014-Sep-22 00:38N 31°41' W 058°19'0 0.1 27.9
2014-Sep-21 23:58N 31°41' W 058°19'0 1.8 27.9
2014-Sep-21 23:46N 31°41' W 058°19'0 2.7 27.9
2014-Sep-21 23:39N 31°42' W 058°19'2 1.5 27.9
2014-Sep-21 22:22N 31°42' W 058°21'1 1.3 27.9
2014-Sep-21 21:50N 31°43' W 058°20'0 1.6 28.0
2014-Sep-21 21:38N 31°43' W 058°21'0 0.0 28.0
2014-Sep-21 21:24N 31°43' W 058°21'0 0.9 28.0
2014-Sep-21 21:20N 31°43' W 058°21'1 0.9 28.0
2014-Sep-21 20:08N 31°43' W 058°22'1 1.4 28.0
2014-Sep-21 19:43N 31°43' W 058°22'1 1.0 28.0
2014-Sep-21 19:11N 31°44' W 058°22'0 1.6 28.1
2014-Sep-21 19:08N 31°44' W 058°22'1 1.2 28.1
2014-Sep-21 18:01N 31°44' W 058°24'1 1.4 28.1
2014-Sep-21 17:32N 31°43' W 058°24'1 0.6 28.1
2014-Sep-21 15:50N 31°44' W 058°25'1 0.8 28.0
2014-Sep-21 14:54N 31°43' W 058°26'118.1 27.9
2014-Sep-21 14:52N 31°42' W 058°26'0 0.4 27.9
2014-Sep-21 14:09N 31°42' W 058°26'1 0.7 27.8
2014-Sep-21 13:22N 31°42' W 058°26'0 1.2 27.7
2014-Sep-21 13:14N 31°42' W 058°26'111.1 27.7
2014-Sep-21 13:10N 31°41' W 058°25'0 0.3 27.7
2014-Sep-21 12:24N 31°41' W 058°25'112.1 27.7
2014-Sep-21 12:19N 31°40' W 058°24'0 0.0 27.7
2014-Sep-21 11:39N 31°40' W 058°24'0 0.0 27.7
2014-Sep-21 10:32N 31°40' W 058°24'1 3.8 27.6
2014-Sep-21 10:24N 31°40' W 058°24'0 0.5
2014-Sep-21 10:05N 31°41' W 058°24'0 2.4 27.6
2014-Sep-21 10:01N 31°40' W 058°24'1 8.0 27.6
2014-Sep-21 09:54N 31°41' W 058°23'0 0.0 27.7
2014-Sep-21 09:51N 31°41' W 058°23'0 0.3 27.7
2014-Sep-21 08:55N 31°41' W 058°23'0 2.0 27.7
2014-Sep-21 08:47N 31°41' W 058°23'0 0.9 27.7
2014-Sep-21 08:19N 31°41' W 058°23'0 3.3 27.7
2014-Sep-21 08:16N 31°41' W 058°23'113.3 27.7
2014-Sep-21 08:12N 31°41' W 058°22'0 0.0 27.7
2014-Sep-21 07:48N 31°41' W 058°22'216.1 27.7
2014-Sep-21 07:42N 31°43' W 058°22'0 0.0 27.7
2014-Sep-21 07:39N 31°43' W 058°22'0 0.0 27.7
2014-Sep-21 06:10N 31°43' W 058°22'0 1.2 27.7
2014-Sep-21 06:07N 31°43' W 058°22'1 7.7 27.7
2014-Sep-21 06:03N 31°43' W 058°23'470.8 27.7
2014-Sep-21 06:00N 31°46' W 058°23'0 0.0 27.7
2014-Sep-21 04:25N 31°46' W 058°23'0 0.0 27.7
2014-Sep-21 04:20N 31°46' W 058°23'0 0.0 27.7
2014-Sep-21 02:38N 31°46' W 058°23'1 1.0 27.8
2014-Sep-21 01:48N 31°47' W 058°24'0 0.0 27.9
2014-Sep-21 01:45N 31°47' W 058°24'110.5 27.9
2014-Sep-21 01:38N 31°47' W 058°25'0 0.0 27.9
2014-Sep-21 01:00N 31°47' W 058°25'014.0 27.9
2014-Sep-21 00:58N 31°47' W 058°26'0 0.2 27.9
2014-Sep-21 00:27N 31°47' W 058°26'0 0.0 27.9
2014-Sep-21 00:07N 31°47' W 058°26'1 1.1 27.9
2014-Sep-20 23:14N 31°47' W 058°27'0 0.2 27.9
2014-Sep-20 22:54N 31°47' W 058°27'1 0.7 28.0
2014-Sep-20 22:08N 31°47' W 058°28'0 0.6 28.1
2014-Sep-20 21:34N 31°47' W 058°28'0 0.0 28.1
2014-Sep-20 21:32N 31°47' W 058°28'1 1.0 28.1
2014-Sep-20 20:35N 31°46' W 058°29'0 0.4 28.2
2014-Sep-20 19:54N 31°46' W 058°29'1 5.7 28.3
2014-Sep-20 19:47N 31°46' W 058°28'0 0.6 28.3
2014-Sep-20 19:20N 31°45' W 058°28'0 0.7 28.3
2014-Sep-20 18:52N 31°46' W 058°28'0 0.2 28.4
2014-Sep-20 18:13N 31°46' W 058°29'0 2.3 28.4
2014-Sep-20 18:09N 31°46' W 058°28'0 0.4 28.3
2014-Sep-20 17:39N 31°45' W 058°28'0 0.3 28.2
2014-Sep-20 16:02N 31°45' W 058°28'0 0.4 28.1
2014-Sep-20 15:19N 31°45' W 058°28'1 0.7 28.0
2014-Sep-20 14:29N 31°45' W 058°28'0 0.2 27.9
2014-Sep-20 13:38N 31°45' W 058°28'0 3.4 27.8
2014-Sep-20 13:31N 31°45' W 058°28'1 1.2 27.8
2014-Sep-20 12:39N 31°46' W 058°27'0 0.0 27.7
2014-Sep-20 10:55N 31°46' W 058°27'0 2.1 27.6
2014-Sep-20 10:48N 31°46' W 058°27'0 0.0 27.6
2014-Sep-20 10:36N 31°46' W 058°27'1 2.0 27.6
2014-Sep-20 10:09N 31°47' W 058°27'0 0.0 27.6
2014-Sep-20 09:16N 31°47' W 058°27'1 5.0 27.6
2014-Sep-20 09:08N 31°47' W 058°27'1 4.2 27.6
2014-Sep-20 08:58N 31°47' W 058°26'1 1.6 27.6
2014-Sep-20 08:24N 31°48' W 058°27'0 0.4 27.6
2014-Sep-20 07:58N 31°48' W 058°27'0 4.7 27.6
2014-Sep-20 07:54N 31°48' W 058°26'126.5 27.6
2014-Sep-20 07:51N 31°49' W 058°27'0 0.0 27.6
2014-Sep-20 07:33N 31°49' W 058°27'0 0.0 27.6
2014-Sep-20 06:49N 31°49' W 058°27'1 1.5 27.6
2014-Sep-20 06:22N 31°49' W 058°26'351.8 27.7
2014-Sep-20 06:19N 31°50' W 058°29'0 0.0 27.7
2014-Sep-20 06:11N 31°50' W 058°29'0 0.1 27.7
2014-Sep-20 04:36N 31°50' W 058°29'2 1.1 27.7
2014-Sep-20 02:52N 31°51' W 058°31'0 0.0 27.7
2014-Sep-20 02:07N 31°51' W 058°31'0 4.6 27.7
2014-Sep-20 02:01N 31°51' W 058°32'1 0.9 27.7
2014-Sep-20 01:19N 31°51' W 058°33'0 0.0 27.7
2014-Sep-20 00:25N 31°51' W 058°33'0 4.7 27.7
2014-Sep-20 00:24N 31°51' W 058°32'0 0.4 27.7
2014-Sep-19 23:37N 31°51' W 058°33'0 4.8 27.7
2014-Sep-19 23:33N 31°50' W 058°33'0 2.3 27.7
2014-Sep-19 23:24N 31°50' W 058°33'1 1.0 27.7
2014-Sep-19 22:36N 31°50' W 058°34'0 8.3 27.8
2014-Sep-19 22:33N 31°50' W 058°33'0 0.2 27.8
2014-Sep-19 21:00N 31°50' W 058°34'0 0.4 27.9
2014-Sep-19 20:07N 31°50' W 058°34'1 1.3 27.9
2014-Sep-19 19:29N 31°50' W 058°35'0 0.7 27.9
2014-Sep-19 19:18N 31°50' W 058°35'0 9.9 27.9
2014-Sep-19 19:16N 31°50' W 058°35'0 0.0 27.9
2014-Sep-19 18:22N 31°50' W 058°35'0 0.7 27.9
2014-Sep-19 17:54N 31°50' W 058°35'0 0.2 27.9
2014-Sep-19 16:09N 31°50' W 058°35'1 1.1 27.7
2014-Sep-19 14:50N 31°51' W 058°37'0 0.5 27.7
2014-Sep-19 14:02N 31°50' W 058°37'1 8.2 27.7
2014-Sep-19 13:53N 31°51' W 058°38'0 0.0 27.6
2014-Sep-19 12:18N 31°51' W 058°38'1 0.7 27.6
2014-Sep-19 11:20N 31°51' W 058°39'0 1.0 27.6
2014-Sep-19 11:07N 31°50' W 058°39'0 0.6 27.6
2014-Sep-19 10:23N 31°51' W 058°39'0 0.0 27.6
2014-Sep-19 10:19N 31°51' W 058°39'0 5.4 27.6
2014-Sep-19 10:15N 31°50' W 058°39'0 0.0 27.6
2014-Sep-19 09:38N 31°50' W 058°39'122.7 27.6
2014-Sep-19 09:35N 31°50' W 058°40'1 2.8 27.6
2014-Sep-19 09:24N 31°50' W 058°39'1 0.7 27.6
2014-Sep-19 08:39N 31°50' W 058°40'0 0.0 27.6
2014-Sep-19 08:34N 31°50' W 058°40'0 0.0 27.6
2014-Sep-19 08:09N 31°50' W 058°40'0 9.5 27.6
2014-Sep-19 08:06N 31°50' W 058°40'0 5.2 27.6
2014-Sep-19 08:03N 31°50' W 058°40'0 0.8 27.6
2014-Sep-19 07:46N 31°50' W 058°40'0 0.4 27.6
2014-Sep-19 06:59N 31°50' W 058°40'0 0.7 27.6
2014-Sep-19 06:24N 31°50' W 058°40'112.0 27.6
2014-Sep-19 06:20N 31°49' W 058°41'0 0.0 27.6
2014-Sep-19 04:48N 31°49' W 058°41'1 4.4 27.6
2014-Sep-19 04:39N 31°49' W 058°42'0 0.0 27.6
2014-Sep-19 02:24N 31°49' W 058°42'010.9 27.6
2014-Sep-19 02:22N 31°49' W 058°42'0 0.1 27.6
2014-Sep-19 01:39N 31°49' W 058°42'1 0.9 27.6
2014-Sep-19 00:48N 31°49' W 058°43'0 0.0 27.6
2014-Sep-19 00:45N 31°49' W 058°43'0 0.4 27.6
2014-Sep-18 23:53N 31°48' W 058°43'0 8.2
2014-Sep-18 23:51N 31°48' W 058°43'0 0.0 27.7
2014-Sep-18 23:06N 31°48' W 058°43'1 0.8 27.7
2014-Sep-18 22:17N 31°48' W 058°43'1 1.7 27.7
2014-Sep-18 21:54N 31°48' W 058°44'0 0.0 27.7
2014-Sep-18 21:24N 31°48' W 058°44'1 0.5 27.7
2014-Sep-18 20:18N 31°47' W 058°44'1 2.2 27.7
2014-Sep-18 19:43N 31°47' W 058°46'1 0.7 27.7
2014-Sep-18 18:37N 31°46' W 058°45'1 1.2 27.7
2014-Sep-18 18:06N 31°46' W 058°45'1 0.6 27.8
2014-Sep-18 16:24N 31°45' W 058°46'0 0.4 27.7
2014-Sep-18 15:09N 31°45' W 058°46'0 0.1 27.7
2014-Sep-18 14:23N 31°45' W 058°46'1 5.4 27.6
2014-Sep-18 14:13N 31°44' W 058°47'1 0.3 27.6
2014-Sep-18 12:33N 31°44' W 058°47'0 0.5 27.6
2014-Sep-18 11:39N 31°44' W 058°48'0 0.0 27.6
2014-Sep-18 10:34N 31°44' W 058°48'0 8.9 27.6
2014-Sep-18 10:31N 31°44' W 058°47'0 4.1 27.6
2014-Sep-18 10:27N 31°44' W 058°48'0 0.0 27.6
2014-Sep-18 10:07N 31°44' W 058°48'0 0.0 27.6
2014-Sep-18 10:00N 31°44' W 058°48'119.0 27.6
2014-Sep-18 09:58N 31°43' W 058°48'0 0.0 27.6
2014-Sep-18 08:53N 31°43' W 058°48'0 3.6 27.6
2014-Sep-18 08:46N 31°44' W 058°48'1 9.8 27.6
2014-Sep-18 08:42N 31°43' W 058°48'0 0.7
2014-Sep-18 08:19N 31°43' W 058°48'022.5 27.6
2014-Sep-18 08:18N 31°43' W 058°48'1 0.6 27.6
2014-Sep-18 07:11N 31°42' W 058°48'1 5.4 27.6
2014-Sep-18 07:05N 31°42' W 058°48'0 0.0 27.6
2014-Sep-18 06:39N 31°42' W 058°48'0 0.1 27.6
2014-Sep-18 04:58N 31°42' W 058°48'0 4.1 27.6
2014-Sep-18 04:51N 31°41' W 058°48'0 0.0 27.6
2014-Sep-18 02:48N 31°41' W 058°48'0 3.6 27.6
2014-Sep-18 02:42N 31°41' W 058°48'0 0.0 27.6
2014-Sep-18 01:58N 31°41' W 058°48'1 0.8 27.6
2014-Sep-18 01:10N 31°41' W 058°49'0 0.9 27.6
2014-Sep-18 01:00N 31°41' W 058°49'0 0.1 27.6
2014-Sep-18 00:22N 31°41' W 058°49'0 2.4 27.6
2014-Sep-18 00:20N 31°41' W 058°49'0 0.2 27.6
2014-Sep-17 23:24N 31°41' W 058°49'0 8.5 27.6
2014-Sep-17 23:21N 31°41' W 058°50'0 0.0 27.6
2014-Sep-17 22:48N 31°41' W 058°50'0 0.3 27.6
2014-Sep-17 22:06N 31°41' W 058°50'0 0.0 27.6
2014-Sep-17 21:47N 31°41' W 058°50'1 0.5 27.6
2014-Sep-17 20:29N 31°40' W 058°51'1 2.5 27.7
2014-Sep-17 20:08N 31°40' W 058°52'132.5 27.7
2014-Sep-17 20:07N 31°40' W 058°52'0 0.1 27.7
2014-Sep-17 18:47N 31°40' W 058°52'0 0.6 27.7
2014-Sep-17 18:16N 31°39' W 058°52'0 3.0 27.7
2014-Sep-17 18:08N 31°40' W 058°52'1 0.7 27.7
2014-Sep-17 16:34N 31°39' W 058°53'1 0.6 27.7
2014-Sep-17 15:29N 31°38' W 058°53'0 0.1 27.7
2014-Sep-17 14:44N 31°38' W 058°53'1 0.8 27.6
2014-Sep-17 13:50N 31°38' W 058°54'0 0.2 27.6
2014-Sep-17 13:03N 31°38' W 058°54'0 0.5 27.6
2014-Sep-17 12:08N 31°38' W 058°54'230.6 27.6
2014-Sep-17 12:05N 31°37' W 058°55'0 0.0 27.6
2014-Sep-17 12:02N 31°37' W 058°55'0 0.1 27.6
2014-Sep-17 10:43N 31°37' W 058°55'0 2.9 27.6
2014-Sep-17 10:39N 31°37' W 058°54'0 0.0 27.6
2014-Sep-17 10:31N 31°37' W 058°54'0 1.3 27.6
2014-Sep-17 10:24N 31°37' W 058°55'0 0.0 27.6
2014-Sep-17 09:08N 31°37' W 058°55'0 1.0 27.7
2014-Sep-17 09:05N 31°37' W 058°55'1 8.5 27.7
2014-Sep-17 09:01N 31°37' W 058°54'0 8.6 27.7
2014-Sep-17 08:58N 31°37' W 058°54'110.8 27.7
2014-Sep-17 08:55N 31°37' W 058°55'0 5.7 27.7
2014-Sep-17 08:51N 31°37' W 058°55'0 3.8 27.7
2014-Sep-17 08:45N 31°37' W 058°55'0 0.0 27.7
2014-Sep-17 08:28N 31°37' W 058°55'0 0.0 27.7
2014-Sep-17 07:23N 31°37' W 058°55'0 4.5 27.7
2014-Sep-17 07:19N 31°36' W 058°55'0 9.8 27.7
2014-Sep-17 07:16N 31°37' W 058°55'0 0.0 27.7
2014-Sep-17 06:53N 31°37' W 058°55'0 0.0
2014-Sep-17 06:52N 31°37' W 058°55'1 4.1 27.7
2014-Sep-17 06:43N 31°37' W 058°56'0 0.0 27.7
2014-Sep-17 05:08N 31°37' W 058°56'1 0.6 27.7
2014-Sep-17 03:07N 31°37' W 058°57'0 0.0 27.7
2014-Sep-17 02:20N 31°37' W 058°57'0 0.1 27.7
2014-Sep-17 01:25N 31°37' W 058°57'1 7.4 27.7
2014-Sep-17 01:20N 31°37' W 058°58'0 0.0 27.7
2014-Sep-17 00:42N 31°37' W 058°58'142.4 27.7
2014-Sep-17 00:41N 31°37' W 058°59'0 0.0 27.7
2014-Sep-16 23:50N 31°37' W 058°59'0 0.5 27.7
2014-Sep-16 23:44N 31°37' W 058°59'0 0.3 27.7
2014-Sep-16 23:17N 31°37' W 058°59'0 0.4 27.7
2014-Sep-16 22:12N 31°38' W 058°59'1 1.1 27.8
2014-Sep-16 21:36N 31°38' W 058°59'0 0.2 27.9
2014-Sep-16 20:38N 31°38' W 058°60'1 9.1 27.9
2014-Sep-16 20:33N 31°39' W 058°59'1 0.8 27.9
2014-Sep-16 18:59N 31°40' W 058°60'1 0.9 27.9
2014-Sep-16 18:24N 31°40' W 058°60'115.5 28.0
2014-Sep-16 18:21N 31°40' W 058°59'1 0.9 28.0
2014-Sep-16 16:46N 31°41' W 058°58'1 0.8 28.1
2014-Sep-16 15:04N 31°42' W 058°57'1 4.1 28.2
2014-Sep-16 14:55N 31°43' W 058°57'0 0.0 28.2
2014-Sep-16 14:13N 31°43' W 058°57'1 0.6 28.2
2014-Sep-16 13:22N 31°43' W 058°57'0 0.0 28.1
2014-Sep-16 13:21N 31°43' W 058°57'1 0.7 28.1
2014-Sep-16 12:28N 31°44' W 058°57'1 7.1 28.1
2014-Sep-16 12:22N 31°44' W 058°56'0 0.0 28.1
2014-Sep-16 11:02N 31°44' W 058°56'0 2.1 28.2
2014-Sep-16 10:56N 31°44' W 058°56'0 3.2 28.2
2014-Sep-16 10:53N 31°44' W 058°56'0 0.0 28.2
2014-Sep-16 10:49N 31°44' W 058°56'0 0.0 28.2
2014-Sep-16 10:46N 31°44' W 058°56'0 0.0 28.2
2014-Sep-16 09:22N 31°44' W 058°56'012.0 28.2
2014-Sep-16 09:20N 31°45' W 058°56'0 0.0 28.2
2014-Sep-16 09:17N 31°45' W 058°56'0 0.0 28.2
2014-Sep-16 09:14N 31°45' W 058°56'1 7.9 28.2
2014-Sep-16 09:08N 31°44' W 058°55'0 0.0 28.2
2014-Sep-16 09:07N 31°44' W 058°55'0 0.0 28.2
2014-Sep-16 07:40N 31°44' W 058°55'0 1.3 28.2
2014-Sep-16 07:33N 31°44' W 058°55'0 4.7 28.2
2014-Sep-16 07:31N 31°44' W 058°55'0 0.9 28.2
2014-Sep-16 07:04N 31°44' W 058°55'0 1.8 28.2
2014-Sep-16 06:54N 31°44' W 058°55'0 0.0 28.3
2014-Sep-16 05:20N 31°44' W 058°55'114.9 28.3
2014-Sep-16 05:15N 31°43' W 058°54'0 0.0 28.3
2014-Sep-16 02:40N 31°43' W 058°54'0 0.2 28.3
2014-Sep-16 01:49N 31°43' W 058°54'0 1.2 28.4
2014-Sep-16 01:43N 31°43' W 058°54'0 0.1 28.4
2014-Sep-16 01:02N 31°43' W 058°54'0 4.7 28.4
2014-Sep-16 01:01N 31°43' W 058°54'0 2.8 28.4
2014-Sep-16 00:55N 31°43' W 058°54'0 0.0 28.4
2014-Sep-16 00:10N 31°43' W 058°54'1 2.8 28.4
2014-Sep-15 23:49N 31°42' W 058°54'1 1.1 28.4
2014-Sep-15 23:20N 31°42' W 058°54'0 0.0 28.4
2014-Sep-15 22:32N 31°42' W 058°54'0 0.0 28.4
2014-Sep-15 22:09N 31°42' W 058°54'1 0.5 28.4
2014-Sep-15 20:57N 31°42' W 058°53'0 1.4 28.4
2014-Sep-15 20:52N 31°42' W 058°53'0 0.8 28.4
2014-Sep-15 20:44N 31°42' W 058°54'0 0.3 28.4
2014-Sep-15 19:11N 31°41' W 058°53'0 1.8 28.4
2014-Sep-15 19:04N 31°41' W 058°53'0 0.1 28.4
2014-Sep-15 18:38N 31°41' W 058°53'0 0.3 28.4
2014-Sep-15 16:58N 31°41' W 058°53'0 0.0 28.4
2014-Sep-15 16:56N 31°41' W 058°53'0 0.2 28.4
2014-Sep-15 15:23N 31°41' W 058°54'1 1.0 28.4
2014-Sep-15 14:33N 31°40' W 058°54'0 0.4 28.4
2014-Sep-15 13:44N 31°40' W 058°54'1 5.4 28.4
2014-Sep-15 13:35N 31°40' W 058°54'0 0.0 28.4
2014-Sep-15 12:47N 31°40' W 058°54'0 0.2 28.4
2014-Sep-15 11:18N 31°39' W 058°54'1 0.4 28.3
2014-Sep-15 09:54N 31°39' W 058°54'0 0.5 28.4
2014-Sep-15 09:37N 31°39' W 058°54'0 1.6 28.4
2014-Sep-15 09:34N 31°39' W 058°54'0 0.0 28.4
2014-Sep-15 09:24N 31°39' W 058°54'0 2.9 28.4
2014-Sep-15 09:19N 31°39' W 058°54'0 0.0 28.4
2014-Sep-15 07:57N 31°39' W 058°54'0 0.7 28.4
2014-Sep-15 07:42N 31°39' W 058°54'0 0.5 28.4
2014-Sep-15 07:15N 31°38' W 058°54'0 0.0 28.4
2014-Sep-15 07:13N 31°38' W 058°54'0 3.9 28.4
2014-Sep-15 07:07N 31°38' W 058°54'0 0.0 28.4
2014-Sep-15 05:31N 31°38' W 058°54'1 4.5 28.5
2014-Sep-15 05:24N 31°38' W 058°54'0 0.0 28.5
2014-Sep-15 02:11N 31°38' W 058°54'0 2.6 28.6
2014-Sep-15 02:04N 31°37' W 058°54'0 0.0 28.6
2014-Sep-15 01:24N 31°37' W 058°54'0 0.0 28.6
2014-Sep-15 01:23N 31°37' W 058°54'117.8 28.6
2014-Sep-15 01:21N 31°37' W 058°55'0 0.1 28.6
2014-Sep-15 00:32N 31°37' W 058°55'0 1.0 28.7
2014-Sep-15 00:17N 31°37' W 058°55'0 0.3 28.7
2014-Sep-14 23:36N 31°37' W 058°54'0 0.2 28.7
2014-Sep-14 21:20N 31°36' W 058°55'0 0.0 29.0
2014-Sep-14 21:03N 31°36' W 058°55'0 0.0 29.0
2014-Sep-14 20:53N 31°36' W 058°55'1 0.5 29.0
2014-Sep-14 19:38N 31°36' W 058°55'0 0.0 29.1
2014-Sep-14 19:23N 31°36' W 058°55'0 0.5 29.1
2014-Sep-14 18:49N 31°36' W 058°55'1 3.5 29.2
2014-Sep-14 18:37N 31°35' W 058°55'0 0.0 29.2
2014-Sep-14 17:08N 31°35' W 058°55'1 0.4 28.9
2014-Sep-14 15:23N 31°35' W 058°55'0 0.2 28.6
2014-Sep-14 14:54N 31°34' W 058°56'0 2.4 28.5
2014-Sep-14 14:51N 31°34' W 058°56'0 0.6 28.5
2014-Sep-14 14:07N 31°34' W 058°55'1 0.7 28.5
2014-Sep-14 13:14N 31°34' W 058°56'0 0.4 28.4
2014-Sep-14 12:19N 31°34' W 058°56'0 3.3 28.4
2014-Sep-14 12:16N 31°34' W 058°56'0 0.0 28.4
2014-Sep-14 11:38N 31°34' W 058°56'1 0.5 28.3
2014-Sep-14 10:23N 31°34' W 058°56'0 0.3 28.3
2014-Sep-14 10:06N 31°34' W 058°56'0 0.4 28.3
2014-Sep-14 09:59N 31°34' W 058°56'0 2.5 28.3
2014-Sep-14 09:55N 31°34' W 058°57'0 0.4 28.3
2014-Sep-14 09:38N 31°34' W 058°56'0 4.6 28.3
2014-Sep-14 09:36N 31°34' W 058°56'1 7.2 28.3
2014-Sep-14 09:31N 31°33' W 058°57'0 0.0 28.3
2014-Sep-14 08:45N 31°33' W 058°57'0 1.0 28.3
2014-Sep-14 08:21N 31°33' W 058°57'0 0.4 28.3
2014-Sep-14 07:51N 31°33' W 058°57'010.5
2014-Sep-14 07:49N 31°33' W 058°57'0 0.0 28.3
2014-Sep-14 07:23N 31°33' W 058°57'0 3.6 28.3
2014-Sep-14 07:16N 31°33' W 058°57'0 0.1 28.3
2014-Sep-14 05:38N 31°33' W 058°57'231.6 28.4
2014-Sep-14 05:35N 31°31' W 058°56'0 0.0 28.4
2014-Sep-14 02:31N 31°31' W 058°56'1 4.4 28.5
2014-Sep-14 02:24N 31°31' W 058°56'0 0.4 28.5
2014-Sep-14 01:44N 31°31' W 058°56'0 4.7 28.5
2014-Sep-14 01:43N 31°31' W 058°56'0 0.2 28.5
2014-Sep-14 00:52N 31°31' W 058°56'0 0.0 28.5
2014-Sep-14 00:49N 31°31' W 058°56'0 0.3 28.5
2014-Sep-14 00:02N 31°31' W 058°56'0 1.1 28.5
2014-Sep-13 23:55N 31°31' W 058°56'0 0.0 28.5
2014-Sep-13 23:13N 31°31' W 058°56'1 0.4 28.6
2014-Sep-13 21:46N 31°32' W 058°56'0 1.9 28.6
2014-Sep-13 21:38N 31°32' W 058°57'0 0.0 28.7
2014-Sep-13 21:34N 31°32' W 058°57'0 0.4 28.7
2014-Sep-13 21:14N 31°31' W 058°57'0 0.9 28.7
2014-Sep-13 21:10N 31°31' W 058°57'1 0.5 28.7
2014-Sep-13 20:07N 31°31' W 058°57'0 0.6 28.8
2014-Sep-13 19:35N 31°31' W 058°58'0 0.4 28.8
2014-Sep-13 18:58N 31°31' W 058°58'0 0.2 28.7
2014-Sep-13 17:50N 31°31' W 058°58'1 1.2 28.8
2014-Sep-13 17:20N 31°30' W 058°58'1 0.4 28.7
2014-Sep-13 15:37N 31°30' W 058°58'0 1.2 28.5
2014-Sep-13 15:14N 31°29' W 058°58'0 3.5 28.5
2014-Sep-13 15:08N 31°29' W 058°58'0 0.5 28.5
2014-Sep-13 14:23N 31°29' W 058°58'1 0.4 28.4
2014-Sep-13 12:38N 31°29' W 058°57'0 0.0 28.3
2014-Sep-13 11:50N 31°29' W 058°57'1 0.7 28.3
2014-Sep-13 10:56N 31°29' W 058°58'0 0.1 28.2
2014-Sep-13 10:31N 31°29' W 058°58'0 0.2 28.2
2014-Sep-13 09:51N 31°29' W 058°58'0 0.0 28.2
2014-Sep-13 09:48N 31°29' W 058°58'0 4.6 28.2
2014-Sep-13 09:42N 31°29' W 058°58'0 0.8 28.2
2014-Sep-13 09:17N 31°29' W 058°58'0 0.6 28.2
2014-Sep-13 08:43N 31°29' W 058°58'0 3.2 28.2
2014-Sep-13 08:40N 31°29' W 058°59'0 0.0 28.2
2014-Sep-13 08:06N 31°29' W 058°59'0 1.2 28.2
2014-Sep-13 08:02N 31°28' W 058°59'0 0.0 28.2
2014-Sep-13 07:38N 31°28' W 058°59'1 4.0 28.2
2014-Sep-13 07:28N 31°28' W 058°59'0 0.0 28.2
2014-Sep-13 05:53N 31°28' W 058°59'1 7.9 28.2
2014-Sep-13 05:47N 31°27' W 058°59'0 0.0 28.2
2014-Sep-13 04:11N 31°27' W 058°59'0 0.0 28.2
2014-Sep-13 02:51N 31°27' W 058°59'1 6.6 28.3
2014-Sep-13 02:46N 31°27' W 058°58'0 0.0 28.3
2014-Sep-13 02:02N 31°27' W 058°58'0 0.3 28.3
2014-Sep-13 01:11N 31°27' W 058°58'1 6.8 28.3
2014-Sep-13 01:05N 31°27' W 058°59'1 0.7 28.3
2014-Sep-13 00:23N 31°27' W 058°58'1 0.7 28.3
2014-Sep-12 23:32N 31°27' W 058°57'1 5.0 28.3
2014-Sep-12 23:23N 31°26' W 058°58'0 0.0 28.3
2014-Sep-12 22:11N 31°26' W 058°58'0 0.0 28.4
2014-Sep-12 22:05N 31°26' W 058°58'0 6.6 28.4
2014-Sep-12 22:02N 31°27' W 058°58'1 1.2 28.4
2014-Sep-12 21:23N 31°27' W 058°59'0 0.0 28.4
2014-Sep-12 20:32N 31°27' W 058°59'0 0.0 28.4
2014-Sep-12 19:45N 31°27' W 058°59'0 0.6 28.4
2014-Sep-12 19:10N 31°27' W 058°60'0 1.8 28.4
2014-Sep-12 19:04N 31°27' W 058°60'0 1.1 28.4
2014-Sep-12 18:48N 31°27' W 058°59'1 0.8 28.4
2014-Sep-12 18:02N 31°27' W 058°60'1 1.2 28.4
2014-Sep-12 17:30N 31°26' W 059°00'0 0.2 28.4
2014-Sep-12 15:48N 31°26' W 059°00'   28.3

Dump ship's entire track history